Time;durP1;ratioP1;P1;durP2;ratioP2;P2;SDS_P1;SDS_P2;PMS_P1;PMS_P2;Temp;Humidity;BMP_temperature;BMP_pressure;BME280_temperature;BME280_humidity;BME280_pressure;Samples;Min_cycle;Max_cycle;Signal;HPM_P1;HPM_P2
2022/06/27 00:04:13;;;;;;;41.03;38.23;;;;;;;15.21;100.00;101401.50;2002617;71;32833;-68
2022/06/27 00:09:58;;;;;;;41.87;39.10;;;;;;;15.16;100.00;101406.33;2008304;71;33312;-67
2022/06/27 00:15:43;;;;;;;42.77;40.07;;;;;;;15.04;100.00;101409.03;2007872;71;33018;-68
2022/06/27 00:21:29;;;;;;;45.20;42.40;;;;;;;14.74;100.00;101411.40;2003895;71;32961;-67
2022/06/27 00:27:15;;;;;;;46.47;43.53;;;;;;;14.90;100.00;101416.48;2016717;71;32904;-68
2022/06/27 00:33:01;;;;;;;48.43;44.80;;;;;;;14.84;100.00;101412.67;1991718;71;33292;-68
2022/06/27 00:38:45;;;;;;;48.83;45.80;;;;;;;14.76;100.00;101415.55;2011368;71;32828;-68
2022/06/27 00:44:35;;;;;;;49.63;46.17;;;;;;;14.79;100.00;101424.77;2008072;71;33341;-68
2022/06/27 00:50:21;;;;;;;49.73;46.43;;;;;;;14.77;100.00;101408.83;2003683;71;32926;-68
2022/06/27 00:56:07;;;;;;;50.20;46.90;;;;;;;14.79;100.00;101411.34;2004064;70;32883;-66
2022/06/27 01:01:54;;;;;;;51.20;48.00;;;;;;;14.65;100.00;101416.82;2015123;71;33361;-68
2022/06/27 01:07:40;;;;;;;49.63;46.33;;;;;;;14.47;100.00;101411.45;1995254;71;32847;-68
2022/06/27 01:13:26;;;;;;;51.03;47.67;;;;;;;14.56;100.00;101415.25;2014996;70;32884;-68
2022/06/27 01:19:13;;;;;;;52.23;48.87;;;;;;;14.42;100.00;101406.47;2003924;71;32969;-68
2022/06/27 01:25:01;;;;;;;50.80;47.20;;;;;;;14.29;100.00;101398.80;2011853;71;32891;-68
2022/06/27 01:30:46;;;;;;;53.17;49.60;;;;;;;14.25;100.00;101403.31;2013292;71;32890;-67
2022/06/27 01:36:44;;;;;;;54.30;50.53;;;;;;;14.29;100.00;101402.98;1991634;71;32890;-68
2022/06/27 01:42:31;;;;;;;53.33;49.93;;;;;;;13.95;100.00;101402.47;2002571;71;32898;-68
2022/06/27 01:48:15;;;;;;;54.40;50.93;;;;;;;14.12;100.00;101394.48;1997576;71;33264;-68
2022/06/27 01:54:05;;;;;;;52.73;49.33;;;;;;;13.99;100.00;101396.56;2011257;71;32872;-68
2022/06/27 01:59:52;;;;;;;51.83;48.43;;;;;;;13.89;100.00;101398.64;2004137;71;33042;-68
2022/06/27 02:05:36;;;;;;;51.83;48.20;;;;;;;13.68;100.00;101401.63;2008089;71;32809;-68
2022/06/27 02:11:23;;;;;;;52.97;49.60;;;;;;;13.68;100.00;101398.84;2018641;71;32840;-68
2022/06/27 02:17:07;;;;;;;53.67;49.87;;;;;;;13.58;100.00;101397.52;2018545;71;33465;-67
2022/06/27 02:22:53;;;;;;;53.53;49.63;;;;;;;13.58;100.00;101403.66;2005870;71;33393;-68
2022/06/27 02:28:39;;;;;;;53.40;49.80;;;;;;;13.53;100.00;101411.52;2005802;71;32839;-67
2022/06/27 02:34:24;;;;;;;54.00;50.20;;;;;;;13.59;100.00;101406.17;2005777;71;33348;-68
2022/06/27 02:36:57;;;;;;;51.20;47.73;;;;;;;13.38;100.00;101410.25;1985262;72;26277;-68
2022/06/27 02:42:44;;;;;;;53.20;49.60;;;;;;;13.66;100.00;101402.47;2014860;71;32809;-67
2022/06/27 02:51:39;;;;;;;53.67;50.20;;;;;;;13.41;100.00;101409.66;2048420;69;32729;-68
2022/06/27 02:54:12;;;;;;;51.80;48.37;;;;;;;13.29;100.00;101420.36;2020428;71;26291;-68
2022/06/27 02:56:45;;;;;;;52.77;49.13;;;;;;;13.22;100.00;101432.41;1935241;73;26363;-68
2022/06/27 02:59:20;;;;;;;53.13;49.50;;;;;;;13.14;100.00;101431.59;1937908;74;26297;-68
2022/06/27 03:01:51;;;;;;;53.53;49.80;;;;;;;13.15;100.00;101431.88;1969416;72;26198;-68
2022/06/27 03:04:21;;;;;;;53.10;49.27;;;;;;;13.33;100.00;101444.33;1930366;73;26241;-68
2022/06/27 03:06:51;;;;;;;52.77;49.03;;;;;;;13.19;100.00;101437.98;2012464;71;26369;-68
2022/06/27 03:09:22;;;;;;;52.60;49.00;;;;;;;13.06;100.00;101430.22;1912122;74;26251;-68
2022/06/27 03:11:52;;;;;;;53.53;49.73;;;;;;;13.11;100.00;101436.37;1894370;74;26670;-68
2022/06/27 03:14:23;;;;;;;53.53;49.70;;;;;;;13.19;100.00;101437.15;1900357;74;26247;-68
2022/06/27 03:16:53;;;;;;;53.33;49.63;;;;;;;13.09;100.00;101439.40;1978740;72;26202;-68
2022/06/27 03:19:26;;;;;;;52.43;48.67;;;;;;;13.13;100.00;101435.53;1969788;72;26295;-68
2022/06/27 03:21:57;;;;;;;52.33;49.07;;;;;;;13.06;100.00;101432.17;1985975;72;26679;-68
2022/06/27 03:24:27;;;;;;;54.00;49.60;;;;;;;12.78;100.00;101434.56;1910497;74;26320;-69
2022/06/27 03:26:58;;;;;;;53.77;49.80;;;;;;;12.93;100.00;101439.77;1891115;76;26253;-69
2022/06/27 03:29:28;;;;;;;53.27;49.17;;;;;;;12.69;100.00;101436.83;1882595;73;26210;-69
2022/06/27 03:31:59;;;;;;;52.57;48.97;;;;;;;12.66;100.00;101440.20;1896716;74;26218;-68
2022/06/27 03:34:30;;;;;;;55.33;51.27;;;;;;;12.87;100.00;101438.98;1979637;72;26319;-69
2022/06/27 03:37:00;;;;;;;52.77;49.00;;;;;;;13.12;100.00;101445.85;1912255;74;26438;-69
2022/06/27 03:39:32;;;;;;;51.77;48.17;;;;;;;12.96;100.00;101449.82;1890925;75;26223;-69
2022/06/27 03:45:17;;;;;;;51.10;47.50;;;;;;;12.53;100.00;101454.73;2011700;71;33061;-69
2022/06/27 03:51:06;;;;;;;52.30;48.60;;;;;;;12.24;100.00;101452.56;2000718;71;32831;-69
2022/06/27 03:56:52;;;;;;;51.90;48.20;;;;;;;12.40;100.00;101454.77;1998543;71;33463;-68
2022/06/27 04:02:36;;;;;;;49.87;46.27;;;;;;;12.25;100.00;101457.02;1861260;76;86680;-68
2022/06/27 04:08:22;;;;;;;50.00;46.30;;;;;;;12.13;100.00;101459.83;2004106;71;33421;-68
2022/06/27 04:14:09;;;;;;;51.20;47.53;;;;;;;12.04;100.00;101466.52;2009451;71;32859;-68
2022/06/27 04:19:54;;;;;;;50.60;46.97;;;;;;;12.19;100.00;101459.53;2009938;71;33334;-66
2022/06/27 04:25:42;;;;;;;51.17;47.77;;;;;;;12.52;100.00;101456.68;2018613;71;33370;-67
2022/06/27 04:31:25;;;;;;;50.23;46.73;;;;;;;12.75;100.00;101451.00;2018682;71;33445;-67
2022/06/27 04:37:10;;;;;;;48.27;45.07;;;;;;;12.84;100.00;101459.05;2016882;71;33382;-68
2022/06/27 04:42:56;;;;;;;48.97;45.47;;;;;;;12.60;100.00;101463.62;2009417;71;33331;-68
2022/06/27 04:48:41;;;;;;;49.33;45.63;;;;;;;12.90;100.00;101469.63;2005742;71;32912;-68
2022/06/27 04:54:26;;;;;;;50.10;46.40;;;;;;;13.14;100.00;101467.30;1997038;71;32770;-68
2022/06/27 05:00:14;;;;;;;52.10;48.30;;;;;;;13.10;100.00;101469.52;2009941;71;32885;-68
2022/06/27 05:05:59;;;;;;;48.20;44.60;;;;;;;13.04;100.00;101471.53;2013350;71;32990;-68
2022/06/27 05:11:49;;;;;;;50.63;46.67;;;;;;;13.32;100.00;101471.39;2016675;71;32887;-68
2022/06/27 05:17:38;;;;;;;47.60;44.17;;;;;;;13.46;100.00;101473.81;2016908;71;32901;-68
2022/06/27 05:26:36;;;;;;;50.50;46.57;;;;;;;13.68;100.00;101471.98;2038262;69;32611;-68
2022/06/27 05:29:07;;;;;;;51.20;47.57;;;;;;;13.80;100.00;101479.98;1935725;73;26278;-68
2022/06/27 05:31:37;;;;;;;49.97;46.40;;;;;;;13.86;100.00;101476.84;2005537;70;26212;-68
2022/06/27 05:34:09;;;;;;;49.20;45.60;;;;;;;13.92;100.00;101474.85;2022225;70;26203;-68
2022/06/27 05:36:40;;;;;;;49.53;45.93;;;;;;;13.89;100.00;101480.47;2006849;70;26235;-68
2022/06/27 05:39:11;;;;;;;51.63;47.50;;;;;;;13.92;100.00;101477.64;2022942;70;26289;-68
2022/06/27 05:41:43;;;;;;;49.90;46.30;;;;;;;13.95;100.00;101472.30;2009681;70;26327;-68
2022/06/27 05:44:16;;;;;;;48.63;45.13;;;;;;;14.01;100.00;101475.33;2013058;70;26222;-68
2022/06/27 05:46:47;;;;;;;49.60;46.00;;;;;;;14.19;100.00;101474.33;2021670;70;26223;-68
2022/06/27 05:49:18;;;;;;;49.50;45.90;;;;;;;14.19;100.00;101470.98;2016693;70;26296;-68
2022/06/27 05:51:49;;;;;;;50.50;46.77;;;;;;;14.34;100.00;101470.81;2008261;70;26219;-68
2022/06/27 05:54:21;;;;;;;50.97;46.87;;;;;;;14.46;100.00;101470.47;2012571;70;26308;-68
2022/06/27 05:56:51;;;;;;;51.23;47.37;;;;;;;14.58;100.00;101468.92;2021939;70;26684;-68
2022/06/27 05:59:23;;;;;;;50.97;47.13;;;;;;;14.59;100.00;101462.18;2012660;70;26215;-67
2022/06/27 06:01:55;;;;;;;51.43;47.63;;;;;;;14.65;100.00;101464.36;2011606;70;26272;-67
2022/06/27 06:04:26;;;;;;;50.00;46.30;;;;;;;14.73;100.00;101467.06;1934665;73;26277;-67
2022/06/27 06:06:56;;;;;;;51.37;47.57;;;;;;;14.86;100.00;101461.58;1935730;73;26266;-68
2022/06/27 06:09:27;;;;;;;52.20;48.23;;;;;;;14.90;100.00;101464.05;1938188;74;26324;-68
2022/06/27 06:11:59;;;;;;;51.53;47.40;;;;;;;14.97;100.00;101465.90;1879288;74;26225;-67
2022/06/27 06:14:29;;;;;;;51.33;47.47;;;;;;;15.04;100.00;101466.95;1937753;73;26360;-68
2022/06/27 06:16:59;;;;;;;51.63;48.03;;;;;;;15.09;100.00;101466.88;1933060;74;26255;-68
2022/06/27 06:19:30;;;;;;;51.97;48.17;;;;;;;15.14;100.00;101458.99;1930983;74;26183;-68
2022/06/27 06:22:01;;;;;;;52.57;48.83;;;;;;;15.18;100.00;101458.09;1884582;73;26254;-68
2022/06/27 06:24:32;;;;;;;54.80;51.03;;;;;;;15.21;100.00;101460.84;1900122;73;26293;-68
2022/06/27 06:30:19;;;;;;;53.33;49.63;;;;;;;15.33;100.00;101453.66;2005784;71;32927;-68
2022/06/27 06:36:05;;;;;;;51.80;48.30;;;;;;;15.38;100.00;101471.78;2004244;71;33457;-68
2022/06/27 06:41:52;;;;;;;52.40;48.70;;;;;;;15.53;100.00;101463.77;2008203;71;32941;-67
2022/06/27 06:47:43;;;;;;;49.27;45.87;;;;;;;15.68;100.00;101462.68;2016646;71;33346;-67
2022/06/27 06:53:29;;;;;;;50.27;47.17;;;;;;;15.68;100.00;101462.11;2011778;71;32768;-67
2022/06/27 06:59:14;;;;;;;50.07;47.00;;;;;;;15.83;100.00;101460.45;2000343;71;32893;-68
2022/06/27 07:05:02;;;;;;;50.63;47.23;;;;;;;15.91;100.00;101454.74;2016937;71;33429;-67
2022/06/27 07:10:46;;;;;;;49.83;46.63;;;;;;;16.14;100.00;101448.14;2015062;71;33300;-67
2022/06/27 07:16:32;;;;;;;44.57;41.43;;;;;;;16.21;100.00;101454.20;2016702;71;33360;-68
2022/06/27 07:22:19;;;;;;;42.33;39.33;;;;;;;16.32;100.00;101445.02;2016459;71;33028;-69
2022/06/27 07:28:04;;;;;;;36.50;33.83;;;;;;;16.62;100.00;101443.05;2014611;70;32935;-69
2022/06/27 07:33:51;;;;;;;34.13;31.57;;;;;;;16.99;100.00;101436.37;2003845;71;32804;-71
2022/06/27 07:39:36;;;;;;;30.90;28.70;;;;;;;17.40;100.00;101439.67;2006093;71;33387;-71
2022/06/27 07:45:23;;;;;;;26.70;24.90;;;;;;;17.68;100.00;101449.69;2016655;71;32933;-72
2022/06/27 07:51:08;;;;;;;26.17;24.00;;;;;;;18.12;100.00;101430.57;2006175;71;32796;-73
2022/06/27 07:56:53;;;;;;;24.57;22.77;;;;;;;18.59;100.00;101425.62;2002669;71;33345;-72
2022/06/27 08:02:37;;;;;;;22.90;21.40;;;;;;;18.92;100.00;101436.48;2005712;71;30976;-73
2022/06/27 08:08:24;;;;;;;19.17;17.80;;;;;;;19.15;100.00;101452.12;2014957;71;32874;-70
2022/06/27 08:14:12;;;;;;;17.20;16.13;;;;;;;18.93;100.00;101448.83;2008112;71;31345;-71
2022/06/27 08:19:58;;;;;;;16.57;15.47;;;;;;;19.09;100.00;101457.06;2016722;71;32897;-71
2022/06/27 08:25:43;;;;;;;15.63;14.53;;;;;;;19.48;100.00;101444.06;2013620;71;30846;-71
2022/06/27 08:31:33;;;;;;;15.80;14.60;;;;;;;18.80;100.00;101453.17;2003812;71;32980;-69
2022/06/27 08:37:17;;;;;;;15.87;14.87;;;;;;;18.63;100.00;101463.79;2011320;71;31502;-71
2022/06/27 08:43:03;;;;;;;15.80;14.63;;;;;;;18.43;100.00;101467.98;2006370;71;31361;-70
2022/06/27 08:48:49;;;;;;;15.13;14.07;;;;;;;18.41;100.00;101470.84;2016536;71;30946;-70
2022/06/27 08:54:34;;;;;;;13.97;13.07;;;;;;;18.81;100.00;101471.73;2000045;71;30926;-71
2022/06/27 09:00:22;;;;;;;13.40;12.80;;;;;;;18.96;100.00;101473.51;2014930;71;30938;-70
2022/06/27 09:06:08;;;;;;;16.23;15.07;;;;;;;18.56;100.00;101482.56;2011218;71;30889;-70
2022/06/27 09:12:10;;;;;;;15.60;14.60;;;;;;;18.80;100.00;101485.55;2004016;71;32934;-71
2022/06/27 09:18:04;;;;;;;16.70;15.70;;;;;;;18.72;100.00;101499.00;2009209;71;32962;-72
2022/06/27 09:24:09;;;;;;;15.73;14.83;;;;;;;18.92;100.00;101491.37;1997056;71;31372;-72
2022/06/27 09:29:57;;;;;;;14.53;13.93;;;;;;;19.58;100.00;101502.09;2004253;71;30837;-71
2022/06/27 09:35:44;;;;;;;17.07;16.17;;;;;;;19.09;100.00;101514.80;2008382;71;30888;-70
2022/06/27 09:41:29;;;;;;;20.23;19.23;;;;;;;18.42;100.00;101517.52;2009542;71;31414;-70
2022/06/27 09:47:22;;;;;;;26.27;24.77;;;;;;;18.25;100.00;101517.41;2018642;71;30930;-72
2022/06/27 09:53:09;;;;;;;31.67;29.87;;;;;;;18.24;100.00;101535.42;1995198;71;30823;-71
2022/06/27 09:58:55;;;;;;;37.53;35.23;;;;;;;18.10;100.00;101531.27;1996979;71;30799;-70
2022/06/27 10:04:42;;;;;;;40.07;37.57;;;;;;;18.03;100.00;101543.55;1996994;71;33264;-70
2022/06/27 10:10:25;;;;;;;39.57;37.17;;;;;;;17.84;100.00;101533.06;2012952;71;33390;-71
2022/06/27 10:16:15;;;;;;;30.20;28.60;;;;;;;18.31;100.00;101519.78;2005900;71;33347;-71
2022/06/27 10:22:12;;;;;;;26.70;25.20;;;;;;;18.41;100.00;101525.13;2007955;71;30891;-71
2022/06/27 10:28:16;;;;;;;23.73;22.43;;;;;;;18.41;100.00;101542.58;1996956;71;30820;-71
2022/06/27 10:34:02;;;;;;;33.10;31.20;;;;;;;18.11;100.00;101541.38;2006224;71;30855;-71
2022/06/27 10:39:46;;;;;;;45.17;42.57;;;;;;;17.81;100.00;101540.12;2011482;71;33510;-71
2022/06/27 10:46:04;;;;;;;46.43;43.70;;;;;;;18.36;100.00;101528.64;2013063;71;32902;-71
2022/06/27 10:51:51;;;;;;;35.53;33.50;;;;;;;18.41;100.00;101532.73;1994786;71;30881;-71
2022/06/27 10:57:44;;;;;;;35.37;33.33;;;;;;;18.45;100.00;101540.20;2014836;71;30912;-71
2022/06/27 11:03:52;;;;;;;34.37;32.43;;;;;;;18.57;100.00;101533.44;1998892;71;30938;-71
2022/06/27 11:09:38;;;;;;;32.83;30.93;;;;;;;18.72;100.00;101529.97;2018452;71;31472;-71
2022/06/27 11:15:25;;;;;;;30.73;28.97;;;;;;;19.04;100.00;101526.78;2000737;71;30899;-71
2022/06/27 11:21:11;;;;;;;29.67;27.90;;;;;;;19.74;100.00;101521.58;2010990;71;30939;-71
2022/06/27 11:27:11;;;;;;;23.70;22.50;;;;;;;19.83;100.00;101516.20;2000729;71;31367;-71
2022/06/27 11:32:57;;;;;;;22.17;21.07;;;;;;;19.73;100.00;101513.70;2002263;71;33377;-71
2022/06/27 11:38:46;;;;;;;20.03;19.03;;;;;;;20.03;100.00;101512.45;1991581;71;31041;-71
2022/06/27 11:44:33;;;;;;;18.63;17.87;;;;;;;20.00;100.00;101506.33;1991520;70;30883;-71
2022/06/27 11:50:22;;;;;;;18.33;17.43;;;;;;;20.10;100.00;101508.56;2006285;70;31512;-70
2022/06/27 11:56:23;;;;;;;17.40;16.40;;;;;;;20.23;100.00;101520.25;2005695;70;31047;-71
2022/06/27 12:02:07;;;;;;;18.70;17.90;;;;;;;20.07;100.00;101519.11;1991566;71;30891;-70
2022/06/27 12:07:55;;;;;;;16.27;15.50;;;;;;;20.56;100.00;101509.25;2007696;71;31015;-71
2022/06/27 12:13:56;;;;;;;15.67;14.80;;;;;;;20.40;100.00;101525.90;2016588;71;30913;-69
2022/06/27 12:19:41;;;;;;;15.30;14.60;;;;;;;20.37;100.00;101512.44;2018584;71;31103;-71
2022/06/27 12:25:26;;;;;;;14.37;13.67;;;;;;;20.57;100.00;101516.55;2006118;71;30883;-69
2022/06/27 12:31:11;;;;;;;13.13;12.53;;;;;;;20.63;100.00;101503.90;1994728;71;30975;-71
2022/06/27 12:36:55;;;;;;;13.73;12.97;;;;;;;21.01;100.00;101527.95;2004023;71;31025;-71
2022/06/27 12:42:40;;;;;;;10.90;10.50;;;;;;;19.58;100.00;101547.19;2016714;71;30906;-72
2022/06/27 12:48:26;;;;;;;11.40;10.90;;;;;;;19.09;100.00;101557.04;1998488;71;30929;-74
2022/06/27 12:54:10;;;;;;;11.80;11.20;;;;;;;18.83;100.00;101561.72;2015209;71;30923;-71
2022/06/27 12:59:55;;;;;;;11.60;11.07;;;;;;;18.63;100.00;101570.16;2011202;71;30974;-73
2022/06/27 13:05:39;;;;;;;12.13;11.53;;;;;;;18.62;100.00;101571.88;1991524;71;32880;-71
2022/06/27 13:11:24;;;;;;;13.93;13.33;;;;;;;18.64;100.00;101576.61;2018510;71;33054;-69
2022/06/27 13:17:08;;;;;;;13.50;12.83;;;;;;;18.52;100.00;101580.56;2009580;71;30935;-74
2022/06/27 13:22:52;;;;;;;13.07;12.37;;;;;;;18.66;100.00;101571.48;2009500;71;30896;-74
2022/06/27 13:28:37;;;;;;;18.83;17.90;;;;;;;18.26;100.00;101598.66;2014751;71;33028;-74
2022/06/27 13:34:23;;;;;;;38.10;35.80;;;;;;;17.79;100.00;101618.89;2015114;71;30918;-73
2022/06/27 13:40:10;;;;;;;40.13;37.43;;;;;;;17.65;100.00;101633.80;1998976;71;31323;-73
2022/06/27 13:45:54;;;;;;;40.30;37.77;;;;;;;17.35;100.00;101638.61;2005687;71;31057;-76
2022/06/27 13:51:39;;;;;;;48.97;46.07;;;;;;;17.35;100.00;101657.43;1997152;71;31360;-74
2022/06/27 13:57:23;;;;;;;51.40;48.20;;;;;;;17.12;100.00;101650.84;2003853;71;30934;-74
2022/06/27 14:03:07;;;;;;;48.93;45.83;;;;;;;17.16;100.00;101646.27;1998538;71;33420;-74
2022/06/27 14:08:51;;;;;;;46.87;43.77;;;;;;;17.68;100.00;101644.40;1968287;72;31541;-74
2022/06/27 14:14:36;;;;;;;47.13;44.13;;;;;;;17.81;100.00;101646.09;1998638;71;31038;-73
2022/06/27 14:20:21;;;;;;;49.93;46.83;;;;;;;17.89;100.00;101639.16;2004039;71;30951;-73
2022/06/27 14:26:06;;;;;;;45.40;42.60;;;;;;;18.10;100.00;101638.11;2018470;71;33395;-71
2022/06/27 14:31:51;;;;;;;40.83;38.07;;;;;;;18.79;100.00;101640.93;2003895;71;30906;-72
2022/06/27 14:37:35;;;;;;;39.67;37.37;;;;;;;18.96;100.00;101638.22;2015091;71;30876;-73
2022/06/27 14:43:22;;;;;;;38.53;36.33;;;;;;;19.26;100.00;101626.69;2007968;71;31315;-74
2022/06/27 14:49:06;;;;;;;34.77;32.87;;;;;;;19.14;100.00;101634.92;2006325;71;31305;-72
2022/06/27 14:54:50;;;;;;;33.83;31.83;;;;;;;19.34;100.00;101633.55;2011111;71;30911;-74
2022/06/27 15:00:35;;;;;;;29.07;27.57;;;;;;;19.18;100.00;101628.06;2016776;71;33419;-74
2022/06/27 15:06:20;;;;;;;28.07;26.57;;;;;;;19.39;100.00;101637.59;2009878;71;30828;-74
2022/06/27 15:12:06;;;;;;;24.97;23.63;;;;;;;19.19;100.00;101646.06;2018537;71;31106;-74
2022/06/27 15:17:51;;;;;;;23.77;22.47;;;;;;;19.32;100.00;101642.31;2007545;71;30905;-74
2022/06/27 15:23:35;;;;;;;22.63;21.53;;;;;;;19.52;100.00;101650.20;2005712;71;31481;-73
2022/06/27 15:29:20;;;;;;;21.93;20.83;;;;;;;19.66;100.00;101659.95;2015105;71;31491;-75
2022/06/27 15:35:09;;;;;;;19.57;18.57;;;;;;;19.73;100.00;101656.64;2014896;71;33322;-75
2022/06/27 15:40:54;;;;;;;17.13;16.33;;;;;;;19.78;100.00;101654.51;2015079;71;31397;-74
2022/06/27 15:46:39;;;;;;;16.20;15.30;;;;;;;19.95;100.00;101649.48;2005623;71;31018;-74
2022/06/27 15:52:23;;;;;;;14.70;13.90;;;;;;;19.90;100.00;101647.66;1991699;71;30837;-73
2022/06/27 15:58:07;;;;;;;14.93;14.13;;;;;;;19.80;100.00;101652.21;2003871;70;31529;-75
2022/06/27 16:03:52;;;;;;;13.43;12.70;;;;;;;19.62;100.00;101660.93;2014916;71;31002;-75
2022/06/27 16:09:36;;;;;;;13.43;12.60;;;;;;;19.42;100.00;101663.73;2015064;71;31426;-74
2022/06/27 16:15:21;;;;;;;12.80;12.10;;;;;;;19.64;100.00;101660.84;1991726;71;30985;-74
2022/06/27 16:21:08;;;;;;;11.83;11.17;;;;;;;19.71;100.00;101655.58;2004346;71;30940;-73
2022/06/27 16:26:52;;;;;;;12.00;11.30;;;;;;;19.63;100.00;101654.98;2011220;71;30962;-74
2022/06/27 16:32:38;;;;;;;12.30;11.70;;;;;;;19.86;100.00;101655.11;1986978;71;30994;-72
2022/06/27 16:38:24;;;;;;;11.40;10.80;;;;;;;19.99;100.00;101653.31;2009425;71;30916;-71
2022/06/27 16:44:08;;;;;;;12.27;11.57;;;;;;;19.79;100.00;101649.13;2000201;71;31008;-72
2022/06/27 16:49:52;;;;;;;11.20;10.30;;;;;;;19.78;100.00;101655.92;2002413;71;30904;-73
2022/06/27 16:55:40;;;;;;;10.67;9.97;;;;;;;19.66;100.00;101664.76;2000530;71;33035;-73
2022/06/27 17:01:25;;;;;;;10.33;9.73;;;;;;;19.38;100.00;101665.55;2018844;71;30943;-74
2022/06/27 17:07:17;;;;;;;11.60;10.77;;;;;;;19.44;100.00;101674.95;2070182;69;30860;-77
2022/06/27 17:13:02;;;;;;;10.90;10.10;;;;;;;19.88;100.00;101672.55;2008321;71;30852;-75
2022/06/27 17:18:46;;;;;;;10.83;10.13;;;;;;;19.79;100.00;101668.03;2013405;71;30921;-73
2022/06/27 17:24:30;;;;;;;9.90;9.30;;;;;;;19.64;100.00;101670.71;2011725;71;31339;-74
2022/06/27 17:30:15;;;;;;;11.60;10.43;;;;;;;19.64;100.00;101672.73;2015317;71;30986;-77
2022/06/27 17:35:59;;;;;;;10.47;9.90;;;;;;;19.75;100.00;101679.72;2000929;71;30978;-77
2022/06/27 17:41:44;;;;;;;10.73;10.00;;;;;;;19.83;100.00;101678.91;2015008;71;30984;-76
2022/06/27 17:47:30;;;;;;;10.83;10.03;;;;;;;19.54;100.00;101686.53;2000946;71;30905;-77
2022/06/27 17:53:14;;;;;;;10.90;10.30;;;;;;;19.39;100.00;101701.00;2006010;71;30912;-76
2022/06/27 17:58:59;;;;;;;10.80;10.20;;;;;;;19.22;100.00;101710.19;2015238;71;31415;-75
2022/06/27 18:04:47;;;;;;;11.30;10.60;;;;;;;19.15;100.00;101716.87;2011293;71;30980;-75
2022/06/27 18:10:28;;;;;;;12.93;10.57;;;;;;;19.03;100.00;101716.62;2009943;71;31325;-74
2022/06/27 18:16:14;;;;;;;11.00;10.33;;;;;;;18.85;100.00;101721.87;2004143;71;30921;-75
2022/06/27 18:21:59;;;;;;;11.90;11.30;;;;;;;18.84;100.00;101725.27;2000964;71;31016;-76
2022/06/27 18:27:45;;;;;;;11.90;11.13;;;;;;;18.70;100.00;101726.48;1991825;71;33316;-72
2022/06/27 18:33:29;;;;;;;12.23;11.53;;;;;;;18.68;100.00;101736.64;2013453;71;33341;-75
2022/06/27 18:39:15;;;;;;;11.60;10.93;;;;;;;18.80;100.00;101742.53;2007532;71;31011;-72
2022/06/27 18:44:59;;;;;;;12.67;11.80;;;;;;;18.83;100.00;101750.34;1991742;71;30903;-75
2022/06/27 18:50:44;;;;;;;12.37;11.57;;;;;;;18.82;100.00;101766.99;2017236;71;31402;-73
2022/06/27 18:56:29;;;;;;;11.10;10.50;;;;;;;18.80;100.00;101758.59;2016943;71;31022;-74
2022/06/27 19:02:14;;;;;;;11.50;10.67;;;;;;;18.76;100.00;101762.63;2002540;71;30899;-76
2022/06/27 19:07:58;;;;;;;11.37;10.43;;;;;;;18.68;100.00;101770.42;2013277;71;30886;-73
2022/06/27 19:13:42;;;;;;;11.43;10.53;;;;;;;18.68;100.00;101767.61;1991871;71;33313;-73
2022/06/27 19:19:27;;;;;;;10.90;10.10;;;;;;;18.52;100.00;101784.02;2011223;71;30949;-73
2022/06/27 19:25:12;;;;;;;11.20;10.53;;;;;;;18.48;100.00;101789.96;2015110;71;30947;-73
2022/06/27 19:30:57;;;;;;;11.40;10.53;;;;;;;18.48;100.00;101797.59;2018786;71;30873;-74
2022/06/27 19:36:41;;;;;;;10.73;10.13;;;;;;;18.49;100.00;101798.67;2007850;71;30971;-75
2022/06/27 19:42:27;;;;;;;10.60;9.90;;;;;;;18.37;100.00;101806.82;2004218;71;31002;-73
2022/06/27 19:48:11;;;;;;;10.90;10.33;;;;;;;18.35;100.00;101811.11;2011866;71;32851;-73
2022/06/27 19:53:56;;;;;;;10.93;10.23;;;;;;;18.31;100.00;101819.92;2013315;70;30851;-74
2022/06/27 19:59:41;;;;;;;11.03;10.23;;;;;;;18.37;100.00;101825.11;2006627;71;31300;-74
2022/06/27 20:05:27;;;;;;;11.70;10.90;;;;;;;18.12;100.00;101837.73;2006195;71;30979;-74
2022/06/27 20:11:11;;;;;;;11.27;10.53;;;;;;;17.96;100.00;101842.56;2006277;71;30925;-75
2022/06/27 20:16:56;;;;;;;11.53;10.73;;;;;;;17.78;100.00;101855.55;2013346;71;30907;-73
2022/06/27 20:22:41;;;;;;;11.93;11.03;;;;;;;17.68;100.00;101863.58;2012012;71;30821;-74
2022/06/27 20:28:27;;;;;;;11.57;10.93;;;;;;;17.54;100.00;101869.69;1991851;71;30972;-74
2022/06/27 20:34:11;;;;;;;11.57;10.80;;;;;;;17.44;100.00;101871.86;2017013;71;30902;-73
2022/06/27 20:39:56;;;;;;;12.93;11.90;;;;;;;17.35;100.00;101885.77;1992160;71;32804;-76
2022/06/27 20:45:41;;;;;;;12.37;11.33;;;;;;;17.41;100.00;101887.36;1998884;71;33347;-75
2022/06/27 20:51:30;;;;;;;12.90;11.93;;;;;;;17.39;100.00;101891.59;2018918;71;30929;-73
2022/06/27 20:57:14;;;;;;;13.03;11.93;;;;;;;17.13;100.00;101906.61;2000969;71;32784;-74
2022/06/27 21:02:59;;;;;;;13.93;12.87;;;;;;;16.89;100.00;101905.84;2009625;71;32882;-75
2022/06/27 21:14:46;;;;;;;15.03;13.90;;;;;;;16.75;100.00;101919.77;1995415;71;32843;-73
2022/06/27 21:20:30;;;;;;;15.77;14.63;;;;;;;16.68;100.00;101918.75;1995042;71;30980;-73
2022/06/27 21:26:15;;;;;;;16.13;15.23;;;;;;;16.60;100.00;101918.59;2003038;71;33342;-72
2022/06/27 21:32:03;;;;;;;17.10;15.87;;;;;;;16.60;100.00;101906.77;2015346;71;33404;-72
2022/06/27 21:37:48;;;;;;;18.63;17.30;;;;;;;16.25;100.00;101914.20;1995238;71;32791;-72
2022/06/27 21:43:33;;;;;;;18.10;16.73;;;;;;;16.37;100.00;101919.66;2015055;71;32953;-73
2022/06/27 21:49:17;;;;;;;18.33;17.23;;;;;;;16.42;100.00;101919.33;2016844;71;33432;-74
2022/06/27 21:55:01;;;;;;;21.27;19.77;;;;;;;16.11;100.00;101918.83;2001084;71;32774;-74
2022/06/27 22:00:47;;;;;;;23.90;22.33;;;;;;;15.97;100.00;101915.04;2006464;71;32885;-74
2022/06/27 22:06:32;;;;;;;24.90;23.50;;;;;;;15.85;100.00;101924.69;2013561;71;32923;-72
2022/06/27 22:12:16;;;;;;;27.50;25.90;;;;;;;15.61;100.00;101921.55;2008010;71;32964;-73
2022/06/27 22:18:01;;;;;;;29.13;27.17;;;;;;;15.53;100.00;101923.02;2011776;71;33419;-74
2022/06/27 22:23:46;;;;;;;29.87;27.83;;;;;;;15.41;100.00;101926.70;2004164;71;32798;-74
2022/06/27 22:29:31;;;;;;;32.60;30.20;;;;;;;15.38;100.00;101921.69;2001146;71;32856;-72
2022/06/27 22:35:16;;;;;;;31.70;29.60;;;;;;;15.42;100.00;101929.78;2000979;71;32750;-73
2022/06/27 22:41:01;;;;;;;34.97;32.63;;;;;;;15.25;100.00;101928.78;1991820;71;33301;-73
2022/06/27 22:46:46;;;;;;;38.43;35.37;;;;;;;15.20;100.00;101924.62;2008279;71;32936;-74
2022/06/27 22:52:30;;;;;;;38.73;36.10;;;;;;;14.87;100.00;101937.41;2002511;71;32821;-73
2022/06/27 22:58:14;;;;;;;40.77;37.87;;;;;;;14.88;100.00;101943.29;1994972;71;32828;-73
2022/06/27 23:03:59;;;;;;;42.00;38.80;;;;;;;14.90;100.00;101941.02;1997595;71;32889;-74
2022/06/27 23:09:43;;;;;;;41.83;38.83;;;;;;;14.93;100.00;101934.03;2013892;71;33270;-73
2022/06/27 23:15:27;;;;;;;42.83;39.70;;;;;;;14.87;100.00;101932.38;2004644;71;32926;-74
2022/06/27 23:21:11;;;;;;;44.07;41.07;;;;;;;14.57;100.00;101946.78;2009966;71;32789;-73
2022/06/27 23:26:58;;;;;;;45.97;42.67;;;;;;;14.69;100.00;101942.25;2006365;71;32835;-73
2022/06/27 23:32:43;;;;;;;46.57;43.50;;;;;;;14.61;100.00;101943.40;2001041;71;32825;-74
2022/06/27 23:38:27;;;;;;;47.20;43.93;;;;;;;14.46;100.00;101940.92;2013199;71;32861;-74
2022/06/27 23:44:14;;;;;;;48.30;44.80;;;;;;;14.41;100.00;101938.17;2014905;71;32902;-73
2022/06/27 23:49:58;;;;;;;48.30;44.77;;;;;;;14.35;100.00;101934.23;2013440;71;32888;-74